Time;durP1;ratioP1;P1;durP2;ratioP2;P2;SDS_P1;SDS_P2;PMS_P1;PMS_P2;Temp;Humidity;BMP_temperature;BMP_pressure;BME280_temperature;BME280_humidity;BME280_pressure;Samples;Min_cycle;Max_cycle;Signal;HPM_P1;HPM_P2
2023/12/09 00:01:42;;;;;;;76.43;27.38;;;;;;;;;;6275961;28;20064;-64
2023/12/09 00:04:43;;;;;;;80.07;27.85;;;;;;;;;;6281934;28;20090;-64
2023/12/09 00:07:44;;;;;;;83.43;27.50;;;;;;;;;;6274406;28;20439;-66
2023/12/09 00:10:45;;;;;;;84.85;28.25;;;;;;;;;;6284193;28;20044;-66
2023/12/09 00:13:46;;;;;;;72.57;27.13;;;;;;;;;;6284307;28;20048;-66
2023/12/09 00:16:47;;;;;;;86.70;27.63;;;;;;;;;;6286811;28;20052;-65
2023/12/09 00:19:48;;;;;;;84.20;27.15;;;;;;;;;;6279287;28;20060;-65
2023/12/09 00:22:49;;;;;;;74.05;25.27;;;;;;;;;;6281570;28;20048;-65
2023/12/09 00:25:49;;;;;;;82.10;28.45;;;;;;;;;;6291028;28;20045;-65
2023/12/09 00:28:50;;;;;;;78.60;26.35;;;;;;;;;;6281439;28;20049;-65
2023/12/09 00:31:51;;;;;;;91.85;29.98;;;;;;;;;;6286043;28;20044;-65
2023/12/09 00:34:52;;;;;;;90.70;28.30;;;;;;;;;;6277033;28;20045;-66
2023/12/09 00:37:53;;;;;;;73.20;25.85;;;;;;;;;;6290580;28;20464;-65
2023/12/09 00:40:54;;;;;;;82.38;26.13;;;;;;;;;;6283983;28;20052;-65
2023/12/09 00:43:54;;;;;;;81.30;26.35;;;;;;;;;;6286542;28;20098;-65
2023/12/09 00:46:55;;;;;;;80.75;26.73;;;;;;;;;;6276062;28;20105;-65
2023/12/09 00:49:56;;;;;;;80.38;26.38;;;;;;;;;;6278160;28;20040;-65
2023/12/09 00:52:57;;;;;;;87.43;26.00;;;;;;;;;;6278165;28;20542;-65
2023/12/09 00:55:57;;;;;;;86.10;27.20;;;;;;;;;;6287859;28;20477;-65
2023/12/09 00:58:58;;;;;;;85.03;26.67;;;;;;;;;;6285051;28;20064;-66
2023/12/09 01:01:59;;;;;;;80.97;25.75;;;;;;;;;;6273140;28;20057;-65
2023/12/09 01:04:59;;;;;;;80.63;26.67;;;;;;;;;;6265293;28;20065;-65
2023/12/09 01:08:00;;;;;;;86.88;27.65;;;;;;;;;;6283285;28;20043;-65
2023/12/09 01:11:01;;;;;;;83.53;26.65;;;;;;;;;;6272860;28;20068;-65
2023/12/09 01:14:01;;;;;;;84.43;26.75;;;;;;;;;;6273801;28;20413;-65
2023/12/09 01:17:02;;;;;;;81.53;26.27;;;;;;;;;;6289056;28;20533;-66
2023/12/09 01:20:03;;;;;;;84.90;27.35;;;;;;;;;;6285736;28;20072;-65
2023/12/09 01:23:04;;;;;;;91.35;27.77;;;;;;;;;;6273540;28;20110;-65
2023/12/09 01:26:04;;;;;;;87.00;28.00;;;;;;;;;;6286765;28;20045;-65
2023/12/09 01:29:05;;;;;;;87.82;27.60;;;;;;;;;;6286335;28;20068;-65
2023/12/09 01:32:06;;;;;;;83.82;28.48;;;;;;;;;;6288028;28;20055;-65
2023/12/09 01:35:10;;;;;;;93.55;28.42;;;;;;;;;;6286331;28;20075;-65
2023/12/09 01:38:10;;;;;;;98.13;29.97;;;;;;;;;;6286653;28;20045;-65
2023/12/09 01:41:11;;;;;;;94.18;30.20;;;;;;;;;;6283119;28;20168;-65
2023/12/09 01:44:12;;;;;;;88.38;26.08;;;;;;;;;;6281473;28;20064;-65
2023/12/09 01:47:13;;;;;;;87.72;27.23;;;;;;;;;;6278988;28;20056;-65
2023/12/09 01:50:15;;;;;;;97.35;30.48;;;;;;;;;;6281079;28;20652;-65
2023/12/09 01:53:16;;;;;;;104.68;30.73;;;;;;;;;;6275127;28;20034;-65
2023/12/09 01:56:18;;;;;;;97.80;29.05;;;;;;;;;;6282923;28;20480;-65
2023/12/09 01:59:19;;;;;;;;;;;;;;;;;;6283980;28;20032;-64
2023/12/09 02:02:20;;;;;;;96.50;29.48;;;;;;;;;;6282795;28;19932;-65
2023/12/09 02:05:21;;;;;;;88.30;27.90;;;;;;;;;;6283492;28;20045;-67
2023/12/09 02:08:22;;;;;;;104.72;28.65;;;;;;;;;;6277967;28;20098;-67
2023/12/09 02:11:45;;;;;;;96.93;27.65;;;;;;;;;;6270417;28;20044;-65
2023/12/09 02:15:03;;;;;;;91.25;26.27;;;;;;;;;;6278988;28;20143;-66
2023/12/09 02:18:05;;;;;;;77.07;25.63;;;;;;;;;;6281654;28;20048;-66
2023/12/09 02:21:06;;;;;;;90.10;27.50;;;;;;;;;;6273162;28;20514;-66
2023/12/09 02:24:08;;;;;;;90.93;27.70;;;;;;;;;;6273185;28;20136;-66
2023/12/09 02:27:13;;;;;;;94.30;27.90;;;;;;;;;;6275400;28;20484;-66
2023/12/09 02:30:23;;;;;;;95.75;28.17;;;;;;;;;;6277578;28;20140;-65
2023/12/09 02:33:25;;;;;;;104.75;28.77;;;;;;;;;;6273888;28;20056;-66
2023/12/09 02:36:27;;;;;;;110.47;29.10;;;;;;;;;;6273415;28;20036;-66
2023/12/09 02:39:28;;;;;;;88.03;29.20;;;;;;;;;;6281842;28;20049;-66
2023/12/09 02:42:29;;;;;;;104.75;33.42;;;;;;;;;;6278716;28;20049;-66
2023/12/09 02:45:30;;;;;;;98.82;32.17;;;;;;;;;;6273246;28;20433;-65
2023/12/09 02:48:31;;;;;;;114.30;33.08;;;;;;;;;;6281237;28;20105;-66
2023/12/09 02:51:31;;;;;;;100.82;31.95;;;;;;;;;;6288136;28;20072;-66
2023/12/09 02:54:32;;;;;;;101.63;30.85;;;;;;;;;;6252969;28;20052;-66
2023/12/09 02:57:34;;;;;;;112.40;31.73;;;;;;;;;;6283403;28;20098;-66
2023/12/09 03:00:35;;;;;;;101.07;30.83;;;;;;;;;;6287139;28;20415;-66
2023/12/09 03:03:35;;;;;;;92.25;30.30;;;;;;;;;;6275848;28;20056;-66
2023/12/09 03:06:36;;;;;;;101.25;31.45;;;;;;;;;;6287767;28;20049;-66
2023/12/09 03:09:36;;;;;;;97.03;30.20;;;;;;;;;;6268544;28;20044;-66
2023/12/09 03:12:37;;;;;;;105.25;30.65;;;;;;;;;;6284345;28;20143;-66
2023/12/09 03:15:38;;;;;;;96.25;28.60;;;;;;;;;;6277698;28;20055;-65
2023/12/09 03:18:38;;;;;;;107.85;31.50;;;;;;;;;;6275135;28;20037;-65
2023/12/09 03:21:39;;;;;;;119.65;32.22;;;;;;;;;;6283852;28;20061;-66
2023/12/09 03:24:43;;;;;;;105.47;29.65;;;;;;;;;;6286557;28;20053;-66
2023/12/09 03:27:44;;;;;;;94.75;30.17;;;;;;;;;;6283956;28;20505;-66
2023/12/09 03:30:45;;;;;;;94.90;29.92;;;;;;;;;;6286025;28;20891;-66
2023/12/09 03:33:45;;;;;;;100.30;32.13;;;;;;;;;;6285347;28;20070;-65
2023/12/09 03:36:46;;;;;;;106.57;30.83;;;;;;;;;;6291339;28;20082;-66
2023/12/09 03:39:46;;;;;;;101.00;31.38;;;;;;;;;;6290800;28;20414;-65
2023/12/09 03:42:47;;;;;;;109.97;32.17;;;;;;;;;;6286499;28;20725;-66
2023/12/09 03:45:48;;;;;;;98.20;29.77;;;;;;;;;;6287475;28;20059;-66
2023/12/09 03:48:49;;;;;;;99.43;30.13;;;;;;;;;;6277504;28;20462;-66
2023/12/09 03:51:49;;;;;;;104.75;33.03;;;;;;;;;;6282311;28;20044;-66
2023/12/09 03:54:50;;;;;;;97.63;29.65;;;;;;;;;;6282730;28;20055;-66
2023/12/09 03:57:51;;;;;;;97.85;29.90;;;;;;;;;;6293428;28;20486;-66
2023/12/09 04:00:52;;;;;;;95.93;31.70;;;;;;;;;;6287384;28;20701;-66
2023/12/09 04:03:52;;;;;;;99.68;32.83;;;;;;;;;;6277648;28;20106;-66
2023/12/09 04:06:53;;;;;;;100.97;32.17;;;;;;;;;;6281562;28;20867;-66
2023/12/09 04:09:53;;;;;;;94.60;31.02;;;;;;;;;;6281082;28;20040;-66
2023/12/09 04:12:54;;;;;;;96.00;30.88;;;;;;;;;;6271134;28;20037;-66
2023/12/09 04:15:55;;;;;;;93.93;30.40;;;;;;;;;;6289941;28;20040;-65
2023/12/09 04:18:55;;;;;;;90.68;28.40;;;;;;;;;;6279348;28;20041;-66
2023/12/09 04:21:56;;;;;;;89.72;28.83;;;;;;;;;;6288143;28;20053;-66
2023/12/09 04:24:57;;;;;;;93.32;28.48;;;;;;;;;;6265134;28;20543;-65
2023/12/09 04:27:57;;;;;;;91.90;29.83;;;;;;;;;;6286019;28;20052;-66
2023/12/09 04:30:58;;;;;;;80.13;26.88;;;;;;;;;;6290146;28;20040;-66
2023/12/09 04:33:59;;;;;;;89.93;28.40;;;;;;;;;;6286372;28;20077;-66
2023/12/09 04:37:00;;;;;;;90.63;26.73;;;;;;;;;;6288500;28;20044;-66
2023/12/09 04:40:04;;;;;;;88.35;28.00;;;;;;;;;;6287423;28;20308;-66
2023/12/09 04:43:05;;;;;;;91.40;28.45;;;;;;;;;;6286363;28;20051;-66
2023/12/09 04:46:06;;;;;;;80.75;27.45;;;;;;;;;;6288577;28;20087;-66
2023/12/09 04:49:07;;;;;;;91.20;28.30;;;;;;;;;;6287701;28;20052;-67
2023/12/09 04:52:07;;;;;;;92.80;28.80;;;;;;;;;;6291199;28;20513;-66
2023/12/09 04:55:08;;;;;;;91.53;28.70;;;;;;;;;;6288258;28;20090;-66
2023/12/09 04:58:08;;;;;;;86.82;28.42;;;;;;;;;;6279848;28;20037;-66
2023/12/09 05:01:09;;;;;;;92.40;28.90;;;;;;;;;;6285159;28;20052;-65
2023/12/09 05:04:10;;;;;;;93.85;29.23;;;;;;;;;;6288074;28;20051;-66
2023/12/09 05:07:11;;;;;;;96.53;28.85;;;;;;;;;;6276480;28;20049;-65
2023/12/09 05:10:12;;;;;;;105.40;31.45;;;;;;;;;;6276049;28;20189;-66
2023/12/09 05:13:13;;;;;;;96.00;29.33;;;;;;;;;;6268731;28;20491;-66
2023/12/09 05:16:13;;;;;;;94.82;30.50;;;;;;;;;;6277031;28;20490;-65
2023/12/09 05:19:14;;;;;;;95.10;30.17;;;;;;;;;;6284736;28;20050;-65
2023/12/09 05:22:15;;;;;;;82.93;26.38;;;;;;;;;;6287917;28;20380;-65
2023/12/09 05:25:16;;;;;;;85.28;29.58;;;;;;;;;;6277020;28;20392;-66
2023/12/09 05:28:16;;;;;;;81.15;29.10;;;;;;;;;;6283114;28;20410;-66
2023/12/09 05:31:17;;;;;;;93.93;29.20;;;;;;;;;;6289961;28;20139;-66
2023/12/09 05:34:17;;;;;;;79.03;27.70;;;;;;;;;;6276391;28;20080;-66
2023/12/09 05:37:18;;;;;;;88.35;28.02;;;;;;;;;;6287559;28;20051;-66
2023/12/09 05:40:19;;;;;;;78.13;26.63;;;;;;;;;;6285010;28;20048;-66
2023/12/09 05:43:20;;;;;;;88.47;28.90;;;;;;;;;;6283750;28;20629;-65
2023/12/09 05:46:20;;;;;;;79.55;27.92;;;;;;;;;;6273799;28;20056;-65
2023/12/09 05:49:21;;;;;;;91.80;30.42;;;;;;;;;;6284665;28;20052;-65
2023/12/09 05:52:22;;;;;;;94.63;32.72;;;;;;;;;;6288390;28;20040;-66
2023/12/09 05:55:22;;;;;;;96.47;30.48;;;;;;;;;;6274391;28;20149;-66
2023/12/09 05:58:23;;;;;;;95.93;32.63;;;;;;;;;;6280492;28;20036;-66
2023/12/09 06:01:24;;;;;;;95.45;32.28;;;;;;;;;;6282092;28;20044;-66
2023/12/09 06:04:24;;;;;;;100.38;32.15;;;;;;;;;;6280012;28;20048;-66
2023/12/09 06:07:25;;;;;;;96.85;32.40;;;;;;;;;;6271022;28;20060;-67
2023/12/09 06:10:26;;;;;;;101.80;33.85;;;;;;;;;;6274400;28;20409;-66
2023/12/09 06:13:26;;;;;;;107.72;31.70;;;;;;;;;;6275444;28;20127;-66
2023/12/09 06:16:27;;;;;;;99.50;32.28;;;;;;;;;;6285241;28;20052;-64
2023/12/09 06:19:28;;;;;;;94.13;33.88;;;;;;;;;;6279869;28;20542;-67
2023/12/09 06:22:29;;;;;;;94.22;31.30;;;;;;;;;;6286660;28;20047;-67
2023/12/09 06:25:30;;;;;;;94.33;32.57;;;;;;;;;;6289780;28;20054;-66
2023/12/09 06:28:31;;;;;;;89.82;31.05;;;;;;;;;;6285422;28;20049;-66
2023/12/09 06:31:31;;;;;;;91.60;31.48;;;;;;;;;;6287545;28;20044;-66
2023/12/09 06:34:32;;;;;;;93.82;33.55;;;;;;;;;;6278743;28;20110;-68
2023/12/09 06:37:33;;;;;;;88.43;32.72;;;;;;;;;;6284994;28;20064;-68
2023/12/09 06:40:33;;;;;;;97.60;34.15;;;;;;;;;;6277639;28;20557;-68
2023/12/09 06:43:35;;;;;;;96.00;33.83;;;;;;;;;;6286465;28;20479;-68
2023/12/09 06:46:38;;;;;;;93.40;31.58;;;;;;;;;;6288084;28;20052;-68
2023/12/09 06:49:38;;;;;;;85.82;32.45;;;;;;;;;;6285199;28;20459;-68
2023/12/09 06:52:39;;;;;;;100.53;33.97;;;;;;;;;;6285200;28;20044;-67
2023/12/09 06:55:40;;;;;;;96.78;35.17;;;;;;;;;;6289879;28;20040;-68
2023/12/09 06:58:41;;;;;;;102.53;35.38;;;;;;;;;;6286943;28;20045;-67
2023/12/09 07:01:43;;;;;;;101.70;36.17;;;;;;;;;;6283832;28;20135;-68
2023/12/09 07:04:43;;;;;;;99.53;36.85;;;;;;;;;;6285002;28;20533;-67
2023/12/09 07:07:44;;;;;;;118.57;39.50;;;;;;;;;;6285066;28;20059;-68
2023/12/09 07:10:46;;;;;;;110.63;37.35;;;;;;;;;;6291205;28;20573;-68
2023/12/09 07:13:48;;;;;;;109.22;36.97;;;;;;;;;;6289694;28;20139;-67
2023/12/09 07:16:48;;;;;;;115.57;37.43;;;;;;;;;;6285259;28;20509;-67
2023/12/09 07:19:51;;;;;;;105.30;35.38;;;;;;;;;;6285737;28;20103;-65
2023/12/09 07:22:51;;;;;;;;;;;;;;;;;;6274332;28;20056;-67
2023/12/09 07:25:52;;;;;;;99.30;33.67;;;;;;;;;;6266229;28;19928;-67
2023/12/09 07:28:53;;;;;;;101.75;34.40;;;;;;;;;;6283854;28;20045;-66
2023/12/09 07:31:54;;;;;;;113.78;39.90;;;;;;;;;;6278145;28;20792;-67
2023/12/09 07:34:54;;;;;;;119.85;42.10;;;;;;;;;;6290647;28;20518;-64
2023/12/09 07:37:55;;;;;;;122.65;42.28;;;;;;;;;;6291314;28;20041;-67
2023/12/09 07:40:56;;;;;;;109.88;39.70;;;;;;;;;;6289551;28;20059;-67
2023/12/09 07:43:57;;;;;;;118.50;42.08;;;;;;;;;;6283237;28;20392;-66
2023/12/09 07:46:58;;;;;;;119.68;41.10;;;;;;;;;;6272767;28;20403;-67
2023/12/09 07:49:59;;;;;;;106.75;39.65;;;;;;;;;;6260552;28;20123;-66
2023/12/09 07:52:59;;;;;;;115.95;42.72;;;;;;;;;;6269092;28;20439;-66
2023/12/09 07:56:01;;;;;;;109.07;40.40;;;;;;;;;;6275265;28;20143;-69
2023/12/09 07:59:02;;;;;;;113.05;39.28;;;;;;;;;;6278045;28;20526;-69
2023/12/09 08:02:03;;;;;;;108.32;37.28;;;;;;;;;;6275601;28;20037;-71
2023/12/09 08:05:04;;;;;;;110.95;38.22;;;;;;;;;;6270912;28;20045;-65
2023/12/09 08:08:05;;;;;;;120.22;38.42;;;;;;;;;;6267331;28;20052;-64
2023/12/09 08:11:06;;;;;;;115.43;38.67;;;;;;;;;;6265220;28;20400;-65
2023/12/09 08:14:07;;;;;;;102.85;36.70;;;;;;;;;;6277540;28;20059;-65
2023/12/09 08:17:07;;;;;;;103.97;37.67;;;;;;;;;;6286302;28;22107;-65
2023/12/09 08:20:08;;;;;;;102.50;34.78;;;;;;;;;;6288598;28;20755;-64
2023/12/09 08:23:09;;;;;;;106.25;37.28;;;;;;;;;;6291609;28;20051;-65
2023/12/09 08:26:15;;;;;;;113.70;39.42;;;;;;;;;;6289661;28;20047;-66
2023/12/09 08:29:16;;;;;;;126.47;43.17;;;;;;;;;;6290750;28;20048;-64
2023/12/09 08:32:17;;;;;;;124.45;44.55;;;;;;;;;;6290506;28;20098;-64
2023/12/09 08:35:17;;;;;;;125.40;44.45;;;;;;;;;;6287886;28;20053;-65
2023/12/09 08:38:18;;;;;;;126.45;45.08;;;;;;;;;;6290349;28;20036;-65
2023/12/09 08:41:19;;;;;;;137.60;48.20;;;;;;;;;;6290946;28;20471;-65
2023/12/09 08:44:20;;;;;;;125.43;45.85;;;;;;;;;;6290750;28;20422;-64
2023/12/09 08:47:20;;;;;;;130.75;48.45;;;;;;;;;;6290614;28;20040;-65
2023/12/09 08:50:21;;;;;;;146.02;50.78;;;;;;;;;;6289324;28;20083;-64
2023/12/09 08:53:21;;;;;;;145.10;48.17;;;;;;;;;;6288540;28;20777;-64
2023/12/09 08:56:22;;;;;;;147.55;49.47;;;;;;;;;;6291322;28;20040;-64
2023/12/09 08:59:23;;;;;;;137.80;49.33;;;;;;;;;;6290814;28;20466;-64
2023/12/09 09:02:26;;;;;;;155.10;53.65;;;;;;;;;;6276069;28;20049;-64
2023/12/09 09:05:27;;;;;;;132.15;46.83;;;;;;;;;;6289691;28;20131;-64
2023/12/09 09:08:28;;;;;;;123.55;42.42;;;;;;;;;;6289829;28;20123;-64
2023/12/09 09:11:29;;;;;;;125.40;45.13;;;;;;;;;;6291153;28;20044;-64
2023/12/09 09:14:29;;;;;;;131.48;44.85;;;;;;;;;;6288532;28;20117;-64
2023/12/09 09:17:30;;;;;;;152.88;56.80;;;;;;;;;;6288530;28;20052;-63
2023/12/09 09:20:31;;;;;;;187.70;65.82;;;;;;;;;;6287088;28;20094;-64
2023/12/09 09:23:31;;;;;;;179.35;62.25;;;;;;;;;;6292151;28;20098;-64
2023/12/09 09:26:33;;;;;;;113.72;43.03;;;;;;;;;;6290324;28;20040;-64
2023/12/09 09:29:33;;;;;;;184.15;67.65;;;;;;;;;;6288800;28;20051;-64
2023/12/09 09:32:35;;;;;;;197.60;76.38;;;;;;;;;;6284875;28;20049;-65
2023/12/09 09:35:35;;;;;;;125.55;45.42;;;;;;;;;;6288799;28;20049;-65
2023/12/09 09:38:36;;;;;;;147.30;52.25;;;;;;;;;;6289375;28;20048;-65
2023/12/09 09:41:53;;;;;;;138.85;51.97;;;;;;;;;;6290996;28;20059;-65
2023/12/09 09:45:19;;;;;;;161.35;55.38;;;;;;;;;;6289903;28;20048;-64
2023/12/09 09:48:24;;;;;;;159.95;58.08;;;;;;;;;;6287821;28;20053;-65
2023/12/09 09:51:29;;;;;;;165.80;58.78;;;;;;;;;;6287148;28;20044;-64
2023/12/09 09:54:31;;;;;;;122.03;44.33;;;;;;;;;;6289001;28;20099;-65
2023/12/09 09:57:33;;;;;;;114.00;41.33;;;;;;;;;;6288341;28;20049;-65
2023/12/09 10:00:33;;;;;;;118.37;43.87;;;;;;;;;;6291965;28;20060;-66
2023/12/09 10:03:34;;;;;;;114.97;41.00;;;;;;;;;;6285228;28;20053;-64
2023/12/09 10:06:35;;;;;;;110.68;43.65;;;;;;;;;;6274349;28;20059;-65
2023/12/09 10:09:36;;;;;;;138.80;56.83;;;;;;;;;;6288562;28;20049;-65
2023/12/09 10:12:37;;;;;;;121.13;44.35;;;;;;;;;;6286249;28;20044;-65
2023/12/09 10:15:38;;;;;;;107.03;40.35;;;;;;;;;;6287162;28;20048;-65
2023/12/09 10:18:46;;;;;;;103.75;37.67;;;;;;;;;;6280224;28;20071;-65
2023/12/09 10:21:47;;;;;;;103.07;36.70;;;;;;;;;;6277655;28;20057;-65
2023/12/09 10:24:51;;;;;;;95.45;36.17;;;;;;;;;;6289850;28;20055;-65
2023/12/09 10:27:51;;;;;;;99.93;38.70;;;;;;;;;;6285128;28;20048;-64
2023/12/09 10:30:52;;;;;;;134.65;45.63;;;;;;;;;;6290833;28;20819;-65
2023/12/09 10:33:53;;;;;;;185.85;68.35;;;;;;;;;;6287223;28;20090;-64
2023/12/09 10:36:53;;;;;;;161.40;60.33;;;;;;;;;;6285994;28;20049;-66
2023/12/09 10:39:54;;;;;;;113.50;43.47;;;;;;;;;;6290552;28;20471;-64
2023/12/09 10:42:56;;;;;;;126.00;48.63;;;;;;;;;;6266502;28;20041;-65
2023/12/09 10:45:59;;;;;;;123.45;47.92;;;;;;;;;;6275066;28;20053;-65
2023/12/09 10:49:00;;;;;;;121.43;46.10;;;;;;;;;;6283173;28;20061;-65
2023/12/09 10:52:01;;;;;;;98.57;38.25;;;;;;;;;;6283515;28;20094;-64
2023/12/09 10:55:01;;;;;;;101.97;39.00;;;;;;;;;;6286808;28;20049;-65
2023/12/09 10:58:05;;;;;;;123.38;45.13;;;;;;;;;;6285726;28;20047;-65
2023/12/09 11:01:07;;;;;;;170.60;64.05;;;;;;;;;;6285786;28;20091;-65
2023/12/09 11:04:09;;;;;;;194.32;73.00;;;;;;;;;;6288592;28;20056;-65
2023/12/09 11:07:11;;;;;;;180.05;70.38;;;;;;;;;;6287031;28;20055;-65
2023/12/09 11:10:12;;;;;;;133.85;53.42;;;;;;;;;;6280695;28;20044;-65
2023/12/09 11:13:13;;;;;;;129.23;49.60;;;;;;;;;;6250320;28;20073;-64
2023/12/09 11:16:18;;;;;;;123.80;46.95;;;;;;;;;;6247817;28;20719;-65
2023/12/09 11:19:22;;;;;;;137.02;49.85;;;;;;;;;;6239607;28;20065;-65
2023/12/09 11:22:23;;;;;;;130.10;49.95;;;;;;;;;;6247991;28;20049;-65
2023/12/09 11:25:26;;;;;;;130.27;49.17;;;;;;;;;;6243485;28;20480;-65
2023/12/09 11:28:27;;;;;;;130.25;50.08;;;;;;;;;;6244860;28;20419;-65
2023/12/09 11:31:32;;;;;;;131.20;48.05;;;;;;;;;;6244388;28;20049;-65
2023/12/09 11:34:34;;;;;;;121.97;45.85;;;;;;;;;;6245080;28;20440;-65
2023/12/09 11:37:34;;;;;;;123.82;47.25;;;;;;;;;;6258340;28;20057;-65
2023/12/09 11:40:36;;;;;;;145.07;53.90;;;;;;;;;;6242485;28;20072;-65
2023/12/09 11:43:37;;;;;;;158.60;58.20;;;;;;;;;;6239380;28;20072;-66
2023/12/09 11:46:38;;;;;;;159.37;57.50;;;;;;;;;;6246339;28;20044;-66
2023/12/09 11:49:40;;;;;;;154.35;55.80;;;;;;;;;;6246421;28;20045;-65
2023/12/09 11:52:45;;;;;;;144.73;57.58;;;;;;;;;;6240914;28;20049;-65
2023/12/09 11:55:46;;;;;;;163.43;57.70;;;;;;;;;;6246230;28;20145;-65
2023/12/09 11:58:47;;;;;;;162.90;58.35;;;;;;;;;;6249409;28;20048;-64
2023/12/09 12:01:48;;;;;;;147.55;56.42;;;;;;;;;;6247210;28;20060;-65
2023/12/09 12:04:49;;;;;;;173.63;67.07;;;;;;;;;;6251824;28;20533;-64
2023/12/09 12:07:50;;;;;;;160.60;60.88;;;;;;;;;;6249581;28;20053;-65
2023/12/09 12:10:52;;;;;;;156.82;57.05;;;;;;;;;;6244765;28;20067;-65
2023/12/09 12:13:53;;;;;;;140.52;52.13;;;;;;;;;;6249853;28;20040;-65
2023/12/09 12:16:54;;;;;;;143.60;52.00;;;;;;;;;;6247880;28;20037;-66
2023/12/09 12:19:55;;;;;;;151.93;54.78;;;;;;;;;;6246497;28;20045;-65
2023/12/09 12:22:56;;;;;;;143.93;54.83;;;;;;;;;;6240931;28;20514;-65
2023/12/09 12:25:57;;;;;;;171.20;60.85;;;;;;;;;;6245600;28;20037;-66
2023/12/09 12:28:57;;;;;;;163.35;60.22;;;;;;;;;;6255379;28;20152;-69
2023/12/09 12:31:59;;;;;;;155.43;56.40;;;;;;;;;;6243839;28;20057;-66
2023/12/09 12:35:03;;;;;;;172.85;61.30;;;;;;;;;;6243936;28;20044;-67
2023/12/09 12:38:04;;;;;;;167.90;65.55;;;;;;;;;;6239636;28;20045;-66
2023/12/09 12:41:05;;;;;;;204.40;79.30;;;;;;;;;;6242675;28;20045;-69
2023/12/09 12:44:06;;;;;;;203.95;74.15;;;;;;;;;;6241151;28;20088;-69
2023/12/09 12:47:07;;;;;;;176.93;66.10;;;;;;;;;;6248801;28;20051;-67
2023/12/09 12:50:08;;;;;;;168.40;63.08;;;;;;;;;;6241101;28;20053;-68
2023/12/09 12:53:10;;;;;;;180.88;64.13;;;;;;;;;;6238445;28;20053;-66
2023/12/09 12:56:10;;;;;;;172.43;62.10;;;;;;;;;;6241798;28;20057;-68
2023/12/09 12:59:11;;;;;;;176.40;65.05;;;;;;;;;;6241792;28;20143;-67
2023/12/09 13:02:12;;;;;;;152.55;58.20;;;;;;;;;;6242778;28;20079;-68
2023/12/09 13:05:13;;;;;;;163.57;60.17;;;;;;;;;;6248239;28;20053;-65
2023/12/09 13:08:14;;;;;;;182.93;66.78;;;;;;;;;;6239333;28;20076;-67
2023/12/09 13:11:15;;;;;;;162.85;57.95;;;;;;;;;;6239162;28;20803;-65
2023/12/09 13:14:15;;;;;;;180.48;65.93;;;;;;;;;;6241627;28;20837;-64
2023/12/09 13:17:16;;;;;;;240.10;80.50;;;;;;;;;;6245544;28;20051;-65
2023/12/09 13:20:17;;;;;;;353.67;118.78;;;;;;;;;;6244321;28;20138;-68
2023/12/09 13:23:18;;;;;;;152.43;56.47;;;;;;;;;;6240280;28;20053;-66
2023/12/09 13:26:20;;;;;;;254.97;86.40;;;;;;;;;;6249101;28;20345;-63
2023/12/09 13:29:21;;;;;;;206.90;76.28;;;;;;;;;;6242139;28;20080;-62
2023/12/09 13:32:21;;;;;;;161.52;62.35;;;;;;;;;;6238820;28;20049;-63
2023/12/09 13:35:22;;;;;;;161.15;59.92;;;;;;;;;;6244232;28;20040;-63
2023/12/09 13:38:23;;;;;;;124.47;48.05;;;;;;;;;;6240142;28;20041;-61
2023/12/09 13:41:24;;;;;;;112.32;42.95;;;;;;;;;;6237620;28;20056;-62
2023/12/09 13:44:24;;;;;;;95.93;38.30;;;;;;;;;;6241555;28;20045;-62
2023/12/09 13:47:26;;;;;;;107.00;41.92;;;;;;;;;;6245211;28;20044;-62
2023/12/09 13:50:26;;;;;;;74.03;31.45;;;;;;;;;;6241096;28;20052;-61
2023/12/09 13:53:27;;;;;;;78.45;29.70;;;;;;;;;;6239572;28;20467;-60
2023/12/09 13:56:28;;;;;;;76.30;30.67;;;;;;;;;;6240410;28;20053;-59
2023/12/09 13:59:29;;;;;;;75.45;28.77;;;;;;;;;;6241789;28;20479;-65
2023/12/09 14:02:29;;;;;;;64.40;24.95;;;;;;;;;;6240618;28;20103;-62
2023/12/09 14:05:30;;;;;;;72.55;29.70;;;;;;;;;;6243802;28;20064;-61
2023/12/09 14:08:31;;;;;;;70.18;29.30;;;;;;;;;;6244717;28;20638;-61
2023/12/09 14:11:32;;;;;;;65.65;24.90;;;;;;;;;;6242727;28;20049;-61
2023/12/09 14:14:33;;;;;;;59.78;21.83;;;;;;;;;;6245387;28;20403;-64
2023/12/09 14:17:33;;;;;;;56.13;23.88;;;;;;;;;;6242685;28;20045;-61
2023/12/09 14:20:35;;;;;;;53.72;22.33;;;;;;;;;;6243391;28;20065;-61
2023/12/09 14:23:36;;;;;;;47.85;20.63;;;;;;;;;;6240468;28;20105;-62
2023/12/09 14:26:37;;;;;;;52.55;21.10;;;;;;;;;;6245321;28;20061;-61
2023/12/09 14:29:37;;;;;;;51.85;20.02;;;;;;;;;;6257233;28;20107;-61
2023/12/09 14:32:38;;;;;;;54.30;21.45;;;;;;;;;;6238494;28;20128;-61
2023/12/09 14:35:40;;;;;;;53.55;21.67;;;;;;;;;;6239622;28;20049;-61
2023/12/09 14:38:42;;;;;;;57.80;23.15;;;;;;;;;;6241041;28;20136;-61
2023/12/09 14:41:42;;;;;;;59.08;22.50;;;;;;;;;;6246250;28;20057;-62
2023/12/09 14:44:43;;;;;;;57.25;23.23;;;;;;;;;;6244411;28;20103;-63
2023/12/09 14:47:44;;;;;;;59.80;22.05;;;;;;;;;;6240160;28;20129;-62
2023/12/09 14:50:44;;;;;;;57.25;21.25;;;;;;;;;;6241345;28;20067;-62
2023/12/09 14:53:45;;;;;;;55.75;21.60;;;;;;;;;;6243344;28;20045;-61
2023/12/09 14:56:46;;;;;;;62.33;23.60;;;;;;;;;;6253988;28;20049;-63
2023/12/09 14:59:47;;;;;;;55.60;20.40;;;;;;;;;;6262826;28;20064;-60
2023/12/09 15:02:47;;;;;;;60.30;22.17;;;;;;;;;;6248289;28;20046;-62
2023/12/09 15:05:48;;;;;;;61.03;23.92;;;;;;;;;;6247420;28;20053;-63
2023/12/09 15:08:49;;;;;;;64.53;25.05;;;;;;;;;;6243115;28;20053;-64
2023/12/09 15:11:50;;;;;;;62.78;23.85;;;;;;;;;;6259657;28;20132;-62
2023/12/09 15:14:51;;;;;;;80.75;27.33;;;;;;;;;;6239589;28;20095;-62
2023/12/09 15:17:53;;;;;;;69.07;25.88;;;;;;;;;;6239910;28;20128;-63
2023/12/09 15:20:53;;;;;;;109.07;35.38;;;;;;;;;;6240196;28;20061;-61
2023/12/09 15:23:54;;;;;;;96.93;30.73;;;;;;;;;;6245047;28;20848;-62
2023/12/09 15:26:55;;;;;;;99.25;31.33;;;;;;;;;;6242492;28;20053;-63
2023/12/09 15:29:57;;;;;;;106.03;36.92;;;;;;;;;;6238915;28;20054;-60
2023/12/09 15:32:57;;;;;;;237.80;83.00;;;;;;;;;;6240315;28;20045;-59
2023/12/09 15:35:58;;;;;;;240.75;83.45;;;;;;;;;;6241102;28;20054;-61
2023/12/09 15:38:59;;;;;;;324.73;112.35;;;;;;;;;;6232605;28;20053;-61
2023/12/09 15:42:00;;;;;;;244.35;83.03;;;;;;;;;;6241196;28;20443;-59
2023/12/09 15:45:02;;;;;;;204.82;70.30;;;;;;;;;;6242923;28;20049;-62
2023/12/09 15:48:03;;;;;;;211.73;71.05;;;;;;;;;;6240779;28;20155;-61
2023/12/09 15:51:06;;;;;;;210.98;71.93;;;;;;;;;;6243063;28;20046;-61
2023/12/09 15:54:09;;;;;;;203.00;73.35;;;;;;;;;;6242502;28;20526;-62
2023/12/09 15:57:10;;;;;;;;;;;;;;;;;;6245487;28;20492;-63
2023/12/09 16:00:13;;;;;;;181.90;61.75;;;;;;;;;;6240510;28;19925;-62
2023/12/09 16:03:15;;;;;;;183.35;61.90;;;;;;;;;;6242822;28;20511;-61
2023/12/09 16:06:16;;;;;;;184.00;63.38;;;;;;;;;;6238960;28;20054;-62
2023/12/09 16:09:16;;;;;;;173.57;57.58;;;;;;;;;;6244364;28;20870;-62
2023/12/09 16:12:17;;;;;;;185.10;61.47;;;;;;;;;;6242349;28;20111;-62
2023/12/09 16:15:18;;;;;;;201.10;70.03;;;;;;;;;;6248271;28;20045;-63
2023/12/09 16:18:19;;;;;;;211.57;70.43;;;;;;;;;;6242391;28;20148;-62
2023/12/09 16:21:21;;;;;;;209.27;69.00;;;;;;;;;;6242504;28;20502;-62
2023/12/09 16:24:27;;;;;;;220.75;72.13;;;;;;;;;;6238474;28;20043;-63
2023/12/09 16:27:27;;;;;;;228.30;77.57;;;;;;;;;;6244658;28;20045;-63
2023/12/09 16:30:28;;;;;;;243.63;78.45;;;;;;;;;;6243843;28;20061;-62
2023/12/09 16:33:29;;;;;;;260.05;89.53;;;;;;;;;;6238317;28;20049;-63
2023/12/09 16:36:31;;;;;;;302.95;101.93;;;;;;;;;;6239541;28;20084;-63
2023/12/09 16:39:32;;;;;;;281.40;93.55;;;;;;;;;;6242052;28;20060;-62
2023/12/09 16:42:33;;;;;;;294.33;101.05;;;;;;;;;;6241289;28;20052;-64
2023/12/09 16:45:34;;;;;;;297.60;99.18;;;;;;;;;;6238625;28;20507;-63
2023/12/09 16:48:35;;;;;;;294.23;95.15;;;;;;;;;;6239558;28;20496;-62
2023/12/09 16:51:35;;;;;;;435.60;141.05;;;;;;;;;;6237009;28;20056;-61
2023/12/09 16:54:36;;;;;;;358.65;110.75;;;;;;;;;;6238695;28;20057;-63
2023/12/09 16:57:38;;;;;;;320.10;99.43;;;;;;;;;;6239722;28;20132;-63
2023/12/09 17:00:38;;;;;;;413.83;120.75;;;;;;;;;;6238997;28;20053;-63
2023/12/09 17:03:39;;;;;;;369.33;111.07;;;;;;;;;;6242124;28;20083;-62
2023/12/09 17:06:41;;;;;;;232.00;84.63;;;;;;;;;;6239201;28;20690;-60
2023/12/09 17:09:42;;;;;;;246.68;83.95;;;;;;;;;;6241253;28;20531;-62
2023/12/09 17:12:43;;;;;;;216.77;75.28;;;;;;;;;;6244539;28;20075;-62
2023/12/09 17:15:44;;;;;;;234.15;79.60;;;;;;;;;;6241811;28;20041;-63
2023/12/09 17:18:45;;;;;;;236.80;81.20;;;;;;;;;;6235387;28;20094;-62
2023/12/09 17:21:46;;;;;;;235.18;83.25;;;;;;;;;;6235687;28;20156;-62
2023/12/09 17:24:47;;;;;;;240.57;84.15;;;;;;;;;;6239144;28;20492;-63
2023/12/09 17:27:50;;;;;;;234.18;79.40;;;;;;;;;;6241320;28;20045;-62